• Join FlightAware (Why Join?)
  • Login
  • US Flag 
09:24PM EDT


 

Airport Tracker/Info


-or-


 

Live Flight TrackerFlight Track Log ✈ AWE3202 ✈ 01-May-2013 ✈ KJAX - KDCA

Flight Track Log - Related Links

Times and Time Zones

All times are in EDT time to prevent confusion due to time zone crossing. See the AWE3202 flight status page for this flight to view local times or setup timezone preferences in your user account.

Time Position Orientation Groundspeed Altitude Reporting Facility
EDT Latitude Longitude Course Direction KTS MPH feet Rate Location/Type
07:18PM 30.4758 -81.6803 338° Northwest 161 185 700  Level Jacksonville Center
07:19PM 30.4964 -81.6583 43° Northeast 192 221 2,400 1,680 Climbing Jacksonville Center
07:20PM 30.5383 -81.6672 350° North 234 269 3,700 2,160 Climbing Jacksonville Center
07:20PM 30.5614 -81.6742 345° North 250 288 4,600 2,700 Climbing Jacksonville Center
07:21PM 30.9573 -81.9006 342° North  Level FlightAware Approximate
07:21PM 30.6094 -81.6833 351° North 276 318 6,400  Level Jacksonville Center
07:22PM 31.0736 -81.9596 338° Northwest  Level FlightAware Approximate
07:22PM 30.6869 -81.6969 351° North 281 323 9,200  Level Jacksonville Center
07:23PM 31.1927 -82.0145 338° Northwest  Level FlightAware Approximate
07:23PM 30.7625 -81.7394 334° Northwest 281 323 11,000  Level Jacksonville Center
07:24PM 30.8464 -81.7942 331° Northwest 307 353 13,300 2,280 Climbing Jacksonville Center
07:25PM 30.9344 -81.8464 333° Northwest 336 387 15,600 2,220 Climbing Jacksonville Center
07:26PM 31.0269 -81.9033 332° Northwest 352 405 17,800 2,340 Climbing Jacksonville Center
07:27PM 31.1192 -81.9631 331° Northwest 364 419 20,300 2,220 Climbing Jacksonville Center
07:28PM 31.2178 -82.0206 333° Northwest 376 433 22,300 1,800 Climbing Jacksonville Center
07:29PM 31.3164 -82.0875 330° Northwest 388 447 24,000 1,740 Climbing Jacksonville Center
07:30PM 31.4250 -82.1086 351° North 393 452 25,800 1,620 Climbing Jacksonville Center
07:31PM 31.5394 -82.0614 19° North 395 455 27,300 1,500 Climbing Jacksonville Center
07:32PM 31.6644 -82.0042 21° North 413 475 28,900 1,380 Climbing Jacksonville Center
07:33PM 31.7831 -81.9564 19° North 440 506 30,100 1,080 Climbing Jacksonville Center
07:34PM 31.8872 -81.9114 20° North 445 512 31,100 1,020 Climbing Jacksonville Center
07:35PM 32.0203 -81.8536 20° North 450 518 32,200 1,020 Climbing Jacksonville Center
07:36PM 32.1450 -81.8031 19° North 455 524 33,200 1,140 Climbing Jacksonville Center
07:37PM 32.2533 -81.7578 19° North 462 532 34,500 900 Climbing Jacksonville Center
07:38PM 32.3864 -81.7019 20° North 462 532 35,000 240 Climbing Jacksonville Center
07:39PM 32.4944 -81.6536 21° North 457 526 35,000  Level Jacksonville Center
07:40PM 32.6131 -81.6028 20° North 450 518 35,000  Level Jacksonville Center
07:41PM 32.7461 -81.5439 20° North 450 518 35,000  Level Jacksonville Center
07:42PM 32.8644 -81.4878 22° Northeast 450 518 35,000  Level Jacksonville Center
07:43PM 32.9697 -81.4044 34° Northeast 442 509 35,000  Level Jacksonville Center
07:44PM 33.0753 -81.3161 35° Northeast 448 516 35,000  Level Jacksonville Center
07:45PM 33.1806 -81.2247 36° Northeast 460 529 35,000  Level Jacksonville Center
07:46PM 33.2858 -81.1383 34° Northeast 460 529 35,000  Level Jacksonville Center
07:47PM 33.3889 -81.0492 36° Northeast 460 529 35,000  Level Jacksonville Center
07:48PM 33.4939 -80.9622 35° Northeast 460 529 35,000  Level Jacksonville Center
07:49PM 33.5992 -80.8728 35° Northeast 460 529 35,000  Level Jacksonville Center
07:50PM 33.7019 -80.7831 36° Northeast 460 529 35,000  Level Jacksonville Center
07:51PM 33.8047 -80.6931 36° Northeast 460 529 35,000  Level Jacksonville Center
07:52PM 33.9094 -80.6053 35° Northeast 460 529 35,000  Level Jacksonville Center
07:53PM 34.0122 -80.5150 36° Northeast 460 529 35,000  Level Jacksonville Center
07:54PM 34.1697 -80.3808 35° Northeast 468 539 35,000  Level Washington Center
07:55PM 34.2717 -80.2861 38° Northeast 463 533 35,000  Level Washington Center
07:56PM 34.3753 -80.1964 36° Northeast 451 519 35,000  Level Washington Center
07:57PM 34.4636 -80.1183 36° Northeast 451 519 35,000  Level Washington Center
07:58PM 34.5694 -80.0283 35° Northeast 451 519 35,000  Level Washington Center
07:59PM 34.6708 -79.9378 36° Northeast 451 519 35,000  Level Washington Center
08:00PM 34.7742 -79.8475 36° Northeast 451 519 35,000  Level Washington Center
08:01PM 34.8733 -79.7589 36° Northeast 451 519 35,000  Level Washington Center
08:02PM 34.9767 -79.6681 36° Northeast 451 519 35,000  Level Washington Center
08:03PM 35.0756 -79.5792 36° Northeast 446 513 35,000 -300 Level Washington Center
08:04PM 35.1744 -79.4925 36° Northeast 441 507 34,400 -960 Descending Washington Center
08:05PM 35.2733 -79.4006 37° Northeast 441 507 33,100 -1,380 Descending Washington Center
08:06PM 35.3850 -79.3014 36° Northeast 446 513 31,800 -1,320 Descending Washington Center
08:07PM 35.4836 -79.2142 36° Northeast 440 506 30,600 -1,200 Descending Washington Center
08:08PM 35.5672 -79.1389 36° Northeast 427 491 29,500 -840 Descending Washington Center
08:09PM 35.6639 -79.0486 37° Northeast 411 473 29,000 -300 Descending Washington Center
08:10PM 35.7558 -78.9681 35° Northeast 406 467 29,000  Level Washington Center
08:11PM 35.8458 -78.8847 37° Northeast 406 467 29,000  Level Washington Center
08:12PM 35.9358 -78.8014 37° Northeast 401 461 29,000  Level Washington Center
08:13PM 36.0256 -78.7175 37° Northeast 401 461 29,000  Level Washington Center
08:14PM 36.1175 -78.6339 36° Northeast 401 461 29,000  Level Washington Center
08:15PM 36.2092 -78.5497 37° Northeast 401 461 29,000 -180 Level Washington Center
08:16PM 36.2967 -78.4681 37° Northeast 401 461 28,700 -1,020 Descending Washington Center
08:17PM 36.3864 -78.3836 37° Northeast 401 461 27,000 -900 Descending Washington Center
08:18PM 36.4717 -78.3039 38° Northeast 396 456 27,000  Level Washington Center
08:19PM 36.4944 -78.2733 38° Northeast  Level FlightAware Approximate
08:19PM 36.5550 -78.2242 38° Northeast 390 449 27,000  Level Washington Center
08:20PM 36.6358 -78.1492 37° Northeast 372 428 27,000 -540 Level Washington Center
08:21PM 36.7144 -78.0742 37° Northeast 366 421 26,000 -1,080 Descending Washington Center
08:22PM 36.7933 -78.0014 36° Northeast 355 409 24,900 -1,200 Descending Washington Center
08:23PM 36.8678 -77.9283 38° Northeast 344 396 23,700 -1,020 Descending Washington Center
08:25PM 36.9769 -77.8117 40° Northeast  Level FlightAware Approximate
08:25PM 37.0186 -77.7872 40° Northeast 344 396 22,000  Level Washington Center
08:26PM 37.0928 -77.7139 38° Northeast 338 389 22,000  Level Washington Center
08:27PM 37.1650 -77.6456 37° Northeast 338 389 22,000  Level Washington Center
08:28PM 37.2392 -77.5744 37° Northeast 333 383 22,000  Level Washington Center
08:29PM 37.3111 -77.5058 37° Northeast 328 377 22,000  Level Washington Center
08:30PM 37.3853 -77.4344 37° Northeast 328 377 22,000  Level Washington Center
08:31PM 37.4572 -77.3631 38° Northeast 328 377 22,000  Level Washington Center
08:32PM 37.5414 -77.3125 25° Northeast 328 377 22,000 -900 Level Washington Center
08:33PM 37.6397 -77.2911 10° North 333 383 20,300 -1,680 Descending Washington Center
08:34PM 37.7361 -77.2722 North 340 391 18,700 -1,380 Descending Washington Center
08:35PM 37.8281 -77.2508 10° North 340 391 17,500 -1,440 Descending Washington Center
08:36PM 37.9222 -77.2344 North 340 391 15,900 -1,680 Descending Washington Center
08:37PM 38.0122 -77.2153 10° North 335 386 14,300 -1,380 Descending Washington Center
08:38PM 38.1019 -77.1986 North 335 386 13,200 -1,440 Descending Washington Center
08:39PM 38.1836 -77.1847 North 335 386 11,400 -1,620 Descending Washington Center
08:40PM 38.2778 -77.1575 13° North 325 374 10,000 -720 Descending Washington Center
08:41PM 38.3550 -77.1458 North 318 366 10,000 -60 Level Washington Center
08:42PM 38.4386 -77.1292 North 312 359 9,900  Descending Washington Center
08:43PM 38.5181 -77.1122 North 300 345 10,000 -240 Climbing Washington Center
08:44PM 38.5975 -77.0925 11° North 289 333 9,500 -840 Descending Washington Center
08:45PM 38.6833 -77.0667 13° North 282 325 8,500 -1,020 Descending Potomac TRACON
08:46PM 38.7500 -77.0667 360° North 276 318 7,800 -900 Descending Potomac TRACON
08:47PM 38.8167 -77.1000 339° North 286 329 6,800 -1,440 Descending Potomac TRACON
08:48PM 38.8667 -77.1667 314° West 270 311 5,000 -1,620 Descending Potomac TRACON
08:49PM 38.9333 -77.2167 330° Northwest 262 302 3,500 -960 Descending Potomac TRACON
08:50PM 38.9500 -77.1500 72° East 210 242 3,000 -780 Descending Potomac TRACON
08:51PM 38.9167 -77.1167 142° Southeast 161 185 2,000 -1,020 Descending Potomac TRACON